Time;durP1;ratioP1;P1;durP2;ratioP2;P2;SDS_P1;SDS_P2;PMS_P1;PMS_P2;Temp;Humidity;BMP_temperature;BMP_pressure;BME280_temperature;BME280_humidity;BME280_pressure;Samples;Min_cycle;Max_cycle;Signal;HPM_P1;HPM_P2
2021/11/25 00:01:07;;;;;;;18.38;15.52;;;8.90;99.90;;;;;;5036496;28;20037;-40
2021/11/25 00:03:34;;;;;;;21.40;16.50;;;8.90;99.90;;;;;;5054611;28;20063;-42
2021/11/25 00:06:01;;;;;;;21.38;18.10;;;8.90;99.90;;;;;;5053399;28;20040;-39
2021/11/25 00:08:27;;;;;;;19.85;16.35;;;8.90;99.90;;;;;;5054564;28;20037;-40
2021/11/25 00:10:54;;;;;;;19.15;17.15;;;8.90;99.90;;;;;;5054421;28;20378;-40
2021/11/25 00:13:20;;;;;;;23.50;17.73;;;8.90;99.90;;;;;;5053217;28;20053;-40
2021/11/25 00:15:47;;;;;;;23.05;18.30;;;8.90;99.90;;;;;;5036309;28;20045;-40
2021/11/25 00:18:13;;;;;;;22.70;18.35;;;8.90;99.90;;;;;;5054214;28;20029;-41
2021/11/25 00:20:40;;;;;;;20.52;17.98;;;8.90;99.90;;;;;;5054128;28;20036;-41
2021/11/25 00:23:06;;;;;;;20.17;17.77;;;8.90;99.90;;;;;;5036523;28;20390;-40
2021/11/25 00:25:33;;;;;;;18.75;16.75;;;8.90;99.90;;;;;;5053878;28;20033;-40
2021/11/25 00:27:59;;;;;;;21.85;18.23;;;8.90;99.90;;;;;;5036065;28;20036;-40
2021/11/25 00:30:26;;;;;;;20.80;17.75;;;8.90;99.90;;;;;;5053201;28;20040;-41
2021/11/25 00:32:52;;;;;;;20.42;17.77;;;8.90;99.90;;;;;;5053232;28;20041;-40
2021/11/25 00:35:19;;;;;;;20.33;18.25;;;8.90;99.90;;;;;;5053984;28;20041;-44
2021/11/25 00:37:46;;;;;;;20.23;17.88;;;8.90;99.90;;;;;;5053863;28;20496;-40
2021/11/25 00:40:17;;;;;;;21.15;18.30;;;8.90;99.90;;;;;;5053799;28;20032;-40
2021/11/25 00:42:45;;;;;;;19.33;17.17;;;8.90;99.90;;;;;;5053844;28;20469;-42
2021/11/25 00:45:13;;;;;;;21.17;18.15;;;8.90;99.90;;;;;;5053958;28;20029;-43
2021/11/25 00:47:39;;;;;;;21.85;18.50;;;8.90;99.90;;;;;;5053618;28;20044;-44
2021/11/25 00:50:08;;;;;;;20.85;18.25;;;8.90;99.90;;;;;;5053768;28;20033;-42
2021/11/25 00:52:35;;;;;;;21.08;18.77;;;8.90;99.90;;;;;;5053338;28;20096;-42
2021/11/25 00:55:02;;;;;;;22.33;19.38;;;8.90;99.90;;;;;;5053352;28;20382;-39
2021/11/25 00:57:29;;;;;;;23.90;19.63;;;8.90;99.90;;;;;;5052672;28;20052;-41
2021/11/25 00:59:55;;;;;;;22.88;18.92;;;8.90;99.90;;;;;;5053769;28;20029;-42
2021/11/25 01:02:22;;;;;;;25.05;19.65;;;8.90;99.90;;;;;;5035487;28;20045;-41
2021/11/25 01:04:49;;;;;;;22.50;19.40;;;8.80;99.90;;;;;;5053336;28;20500;-40
2021/11/25 01:07:15;;;;;;;24.52;19.40;;;8.90;99.90;;;;;;5053278;28;20032;-42
2021/11/25 01:09:42;;;;;;;26.70;19.77;;;8.90;99.90;;;;;;5053129;28;20036;-39
2021/11/25 01:12:11;;;;;;;21.98;19.30;;;8.90;99.90;;;;;;5053204;28;20036;-40
2021/11/25 01:14:38;;;;;;;24.50;19.15;;;8.90;99.90;;;;;;5053124;28;20039;-40
2021/11/25 01:17:05;;;;;;;20.45;18.30;;;8.80;99.90;;;;;;5053187;28;20048;-39
2021/11/25 01:19:32;;;;;;;24.98;19.08;;;8.80;99.90;;;;;;5053002;28;20021;-40
2021/11/25 01:21:59;;;;;;;21.98;18.58;;;8.70;99.90;;;;;;5052943;28;20361;-40
2021/11/25 01:24:25;;;;;;;24.88;19.98;;;8.70;99.90;;;;;;5053058;28;20024;-40
2021/11/25 01:26:52;;;;;;;23.70;20.15;;;8.70;99.90;;;;;;5053110;28;20033;-39
2021/11/25 01:29:18;;;;;;;22.55;18.58;;;8.70;99.90;;;;;;5052570;28;20040;-41
2021/11/25 01:31:45;;;;;;;22.77;18.90;;;8.70;99.90;;;;;;5035066;28;20052;-40
2021/11/25 01:34:11;;;;;;;22.92;19.00;;;8.70;99.90;;;;;;5052713;28;20033;-40
2021/11/25 01:36:38;;;;;;;24.10;19.45;;;8.70;99.90;;;;;;5052699;28;20062;-40
2021/11/25 01:39:05;;;;;;;22.30;19.67;;;8.60;99.90;;;;;;5052802;28;20037;-40
2021/11/25 01:41:31;;;;;;;24.42;20.63;;;8.60;99.90;;;;;;5052576;28;20025;-40
2021/11/25 01:43:58;;;;;;;26.70;22.48;;;8.60;99.90;;;;;;5052830;28;20085;-40
2021/11/25 01:46:25;;;;;;;27.10;20.70;;;8.60;99.90;;;;;;5051638;28;20044;-40
2021/11/25 01:48:52;;;;;;;25.58;21.98;;;8.60;99.90;;;;;;5052773;28;20044;-41
2021/11/25 01:51:20;;;;;;;23.90;21.38;;;8.60;99.90;;;;;;5052227;28;20036;-45
2021/11/25 01:53:48;;;;;;;25.17;20.38;;;8.60;99.90;;;;;;5052792;28;20037;-41
2021/11/25 01:56:16;;;;;;;24.55;20.73;;;8.60;99.90;;;;;;5052591;28;20385;-43
2021/11/25 01:58:43;;;;;;;24.35;19.92;;;8.50;99.90;;;;;;5052010;28;20037;-44
2021/11/25 02:01:12;;;;;;;23.95;20.27;;;8.50;99.90;;;;;;5033568;28;20052;-40
2021/11/25 02:03:39;;;;;;;21.83;19.48;;;8.50;99.90;;;;;;5051937;28;20048;-42
2021/11/25 02:06:06;;;;;;;28.20;21.25;;;8.50;99.90;;;;;;5034537;28;20029;-40
2021/11/25 02:08:32;;;;;;;24.00;21.00;;;8.60;99.90;;;;;;5052674;28;20032;-41
2021/11/25 02:10:59;;;;;;;24.25;20.27;;;8.50;99.90;;;;;;5052332;28;20033;-40
2021/11/25 02:13:28;;;;;;;24.33;21.48;;;8.50;99.90;;;;;;5052463;28;20485;-44
2021/11/25 02:15:54;;;;;;;26.13;21.25;;;8.50;99.90;;;;;;5051947;28;20385;-41
2021/11/25 02:18:23;;;;;;;25.45;20.63;;;8.50;99.90;;;;;;5051155;28;20116;-39
2021/11/25 02:20:57;;;;;;;24.88;20.85;;;8.40;99.90;;;;;;5052069;28;20029;-41
2021/11/25 02:23:25;;;;;;;25.42;20.38;;;8.50;99.90;;;;;;5052347;28;20041;-44
2021/11/25 02:25:52;;;;;;;30.17;22.10;;;8.50;99.90;;;;;;5052695;28;20033;-41
2021/11/25 02:28:19;;;;;;;24.65;21.30;;;8.50;99.90;;;;;;5051607;28;20040;-41
2021/11/25 02:30:47;;;;;;;24.25;20.30;;;8.50;99.90;;;;;;5052142;28;20032;-40
2021/11/25 02:33:13;;;;;;;23.67;20.63;;;8.40;99.90;;;;;;5051707;28;20049;-41
2021/11/25 02:35:40;;;;;;;24.17;20.33;;;8.40;99.90;;;;;;5034513;28;20048;-40
2021/11/25 02:38:08;;;;;;;24.52;21.08;;;8.40;99.90;;;;;;5051977;28;20037;-41
2021/11/25 02:40:41;;;;;;;23.70;20.10;;;8.40;99.90;;;;;;5052065;28;20036;-40
2021/11/25 02:43:11;;;;;;;25.65;20.95;;;8.40;99.90;;;;;;5034141;28;20485;-41
2021/11/25 02:45:53;;;;;;;24.67;20.70;;;8.40;99.90;;;;;;5052150;28;20040;-40
2021/11/25 02:48:23;;;;;;;26.73;20.65;;;8.40;99.90;;;;;;5051959;28;20029;-42
2021/11/25 02:50:51;;;;;;;27.00;20.02;;;8.40;99.90;;;;;;5052236;28;20033;-40
2021/11/25 02:53:20;;;;;;;25.13;21.88;;;8.40;99.90;;;;;;5051297;28;20378;-41
2021/11/25 02:55:47;;;;;;;28.25;21.50;;;8.40;99.90;;;;;;5052835;28;20473;-40
2021/11/25 02:58:14;;;;;;;25.08;21.92;;;8.40;99.90;;;;;;5055535;28;20084;-43
2021/11/25 03:00:44;;;;;;;25.02;20.98;;;8.40;99.90;;;;;;5038143;28;20047;-41
2021/11/25 03:03:13;;;;;;;25.80;22.00;;;8.40;99.90;;;;;;5055715;28;20044;-42
2021/11/25 03:05:41;;;;;;;25.60;21.95;;;8.40;99.90;;;;;;5055684;28;20458;-41
2021/11/25 03:08:09;;;;;;;28.42;24.05;;;8.40;99.90;;;;;;5054616;28;20377;-43
2021/11/25 03:10:47;;;;;;;26.20;23.25;;;8.40;99.90;;;;;;5055264;28;20052;-42
2021/11/25 03:13:16;;;;;;;24.73;21.45;;;8.40;99.90;;;;;;5055072;28;20052;-44
2021/11/25 03:15:43;;;;;;;24.02;21.05;;;8.40;99.90;;;;;;5054799;28;20049;-40
2021/11/25 03:18:11;;;;;;;25.65;22.15;;;8.40;99.90;;;;;;5055497;28;20469;-40
2021/11/25 03:20:40;;;;;;;25.60;22.55;;;8.40;99.90;;;;;;5037488;28;20384;-41
2021/11/25 03:23:08;;;;;;;24.33;21.00;;;8.30;99.90;;;;;;5055240;28;20527;-42
2021/11/25 03:25:35;;;;;;;25.35;21.85;;;8.30;99.90;;;;;;5055348;28;20507;-40
2021/11/25 03:28:02;;;;;;;24.35;21.77;;;8.30;99.90;;;;;;5054933;28;20373;-41
2021/11/25 03:30:28;;;;;;;27.05;22.60;;;8.40;99.90;;;;;;5055222;28;20037;-43
2021/11/25 03:32:55;;;;;;;28.35;22.38;;;8.30;99.90;;;;;;5055172;28;20107;-41
2021/11/25 03:35:21;;;;;;;26.60;22.55;;;8.30;99.90;;;;;;5054976;28;20036;-43
2021/11/25 03:37:47;;;;;;;25.00;21.95;;;8.30;99.90;;;;;;5055238;28;20040;-41
2021/11/25 03:40:15;;;;;;;28.08;23.08;;;8.30;99.90;;;;;;5054846;28;20021;-41
2021/11/25 03:42:42;;;;;;;27.70;23.10;;;8.30;99.90;;;;;;5054806;28;20466;-40
2021/11/25 03:45:09;;;;;;;28.20;22.20;;;8.30;99.90;;;;;;5054891;28;20044;-41
2021/11/25 03:47:35;;;;;;;30.50;25.00;;;8.20;99.90;;;;;;5036848;28;20033;-40
2021/11/25 03:50:03;;;;;;;28.50;24.90;;;8.30;99.90;;;;;;5054050;28;20057;-44
2021/11/25 03:52:29;;;;;;;30.35;25.55;;;8.30;99.90;;;;;;5054223;28;20049;-42
2021/11/25 03:54:56;;;;;;;29.27;24.65;;;8.20;99.90;;;;;;5054980;28;20044;-41
2021/11/25 03:57:23;;;;;;;31.67;26.13;;;8.30;99.90;;;;;;5054344;28;20029;-43
2021/11/25 03:59:51;;;;;;;28.70;24.92;;;8.30;99.90;;;;;;5037205;28;20040;-40
2021/11/25 04:02:20;;;;;;;26.67;23.83;;;8.30;99.90;;;;;;5054369;28;20116;-40
2021/11/25 04:04:47;;;;;;;25.90;23.05;;;8.30;99.90;;;;;;5054470;28;20033;-41
2021/11/25 04:07:14;;;;;;;28.95;25.73;;;8.20;99.90;;;;;;5053178;28;20052;-41
2021/11/25 04:09:41;;;;;;;30.35;24.92;;;8.20;99.90;;;;;;5054811;28;20021;-39
2021/11/25 04:12:08;;;;;;;30.50;25.50;;;8.20;99.90;;;;;;5054495;28;20029;-41
2021/11/25 04:14:34;;;;;;;28.15;24.80;;;8.20;99.90;;;;;;5054152;28;20036;-39
2021/11/25 04:17:01;;;;;;;31.17;25.60;;;8.20;99.90;;;;;;5054517;28;20032;-42
2021/11/25 04:19:27;;;;;;;29.60;24.38;;;8.20;99.90;;;;;;5054485;28;20033;-42
2021/11/25 04:21:54;;;;;;;30.05;25.52;;;8.10;99.90;;;;;;5054475;28;20043;-40
2021/11/25 04:24:21;;;;;;;28.92;24.15;;;8.20;99.90;;;;;;5054025;28;20481;-40
2021/11/25 04:26:47;;;;;;;28.55;24.25;;;8.20;99.90;;;;;;5054319;28;20052;-42
2021/11/25 04:29:14;;;;;;;28.60;24.20;;;8.10;99.90;;;;;;5053573;28;20044;-42
2021/11/25 04:37:14;;;;;;;29.33;24.85;;;8.00;99.90;;;;;;5053300;28;20040;-40
2021/11/25 04:39:41;;;;;;;28.48;23.33;;;7.90;99.90;;;;;;5053611;28;20044;-41
2021/11/25 04:42:09;;;;;;;28.75;23.45;;;7.90;99.90;;;;;;5053283;28;20065;-41
2021/11/25 04:44:36;;;;;;;34.90;25.77;;;7.90;99.90;;;;;;5052663;28;20128;-46
2021/11/25 04:47:03;;;;;;;29.88;23.30;;;7.90;99.90;;;;;;5054130;28;20041;-40
2021/11/25 04:49:30;;;;;;;28.45;24.45;;;8.00;99.90;;;;;;5053298;28;20029;-41
2021/11/25 04:51:56;;;;;;;29.17;24.10;;;8.00;99.90;;;;;;5053738;28;20066;-41
2021/11/25 04:54:23;;;;;;;29.90;24.38;;;7.90;99.90;;;;;;5053751;28;20036;-40
2021/11/25 04:56:50;;;;;;;33.83;24.05;;;7.90;99.90;;;;;;5053228;28;20029;-40
2021/11/25 04:59:16;;;;;;;32.10;27.15;;;8.00;99.90;;;;;;5053142;28;20033;-40
2021/11/25 05:01:42;;;;;;;28.10;24.77;;;8.00;99.90;;;;;;5053192;28;20033;-41
2021/11/25 05:04:09;;;;;;;32.13;24.60;;;8.00;99.90;;;;;;5053195;28;20044;-45
2021/11/25 05:06:36;;;;;;;27.92;23.90;;;8.00;99.90;;;;;;5053293;28;20385;-40
2021/11/25 05:09:03;;;;;;;25.33;21.77;;;8.00;99.90;;;;;;5053511;28;20139;-40
2021/11/25 05:11:30;;;;;;;27.30;22.55;;;8.00;99.90;;;;;;5052367;28;20052;-41
2021/11/25 05:13:56;;;;;;;27.17;22.50;;;8.00;99.90;;;;;;5053602;28;20033;-40
2021/11/25 05:16:23;;;;;;;24.75;21.45;;;8.00;99.90;;;;;;5053134;28;20048;-40
2021/11/25 05:18:49;;;;;;;25.73;23.02;;;8.00;99.90;;;;;;5052044;28;20049;-41
2021/11/25 05:21:15;;;;;;;25.30;22.63;;;8.00;99.90;;;;;;5052055;28;20041;-44
2021/11/25 05:23:42;;;;;;;24.20;21.60;;;8.00;99.90;;;;;;5052552;28;20049;-42
2021/11/25 05:26:08;;;;;;;27.83;23.85;;;8.00;99.90;;;;;;5035255;28;20025;-42
2021/11/25 05:28:35;;;;;;;24.20;21.42;;;7.90;99.90;;;;;;5052558;28;20036;-40
2021/11/25 05:31:01;;;;;;;25.10;21.75;;;8.00;99.90;;;;;;5052954;28;20025;-45
2021/11/25 05:33:28;;;;;;;25.85;21.27;;;7.90;99.90;;;;;;5052897;28;20068;-41
2021/11/25 05:35:55;;;;;;;24.27;21.67;;;7.90;99.90;;;;;;5018602;28;20048;-41
2021/11/25 05:38:21;;;;;;;23.15;20.73;;;8.00;99.90;;;;;;5052108;28;20064;-41
2021/11/25 05:40:48;;;;;;;22.10;19.75;;;8.00;99.90;;;;;;5052594;28;20037;-41
2021/11/25 05:43:14;;;;;;;25.02;21.15;;;8.00;99.90;;;;;;5052420;28;20037;-41
2021/11/25 05:45:41;;;;;;;25.95;22.73;;;8.00;99.90;;;;;;5052511;28;20053;-39
2021/11/25 05:48:07;;;;;;;26.70;23.80;;;8.00;99.90;;;;;;5052492;28;20034;-38
2021/11/25 05:50:34;;;;;;;25.27;21.98;;;8.00;99.90;;;;;;5052642;28;20477;-42
2021/11/25 05:53:01;;;;;;;25.10;22.10;;;8.00;99.90;;;;;;5052386;28;20673;-41
2021/11/25 05:55:30;;;;;;;24.73;21.23;;;8.00;99.90;;;;;;5052448;28;20339;-41
2021/11/25 05:57:58;;;;;;;25.50;21.73;;;8.00;99.90;;;;;;5052618;28;20025;-44
2021/11/25 06:00:25;;;;;;;25.00;21.77;;;8.00;99.90;;;;;;5055046;28;20040;-44
2021/11/25 06:02:52;;;;;;;28.73;24.17;;;8.00;99.90;;;;;;5072491;28;20028;-41
2021/11/25 06:05:22;;;;;;;24.20;21.58;;;8.00;99.90;;;;;;5072246;28;20468;-41
2021/11/25 06:07:49;;;;;;;26.20;21.77;;;8.00;99.90;;;;;;5072499;28;20480;-39
2021/11/25 06:10:18;;;;;;;26.55;22.33;;;8.00;99.90;;;;;;5072055;28;20069;-41
2021/11/25 06:12:46;;;;;;;26.33;22.10;;;8.00;99.90;;;;;;5072569;28;20389;-43
2021/11/25 06:15:13;;;;;;;25.17;22.27;;;8.00;99.90;;;;;;5072046;28;20028;-42
2021/11/25 06:17:39;;;;;;;24.55;21.20;;;7.90;99.90;;;;;;5072445;28;20473;-43
2021/11/25 06:20:13;;;;;;;23.08;19.40;;;7.90;99.90;;;;;;5071144;28;20045;-41
2021/11/25 06:22:41;;;;;;;23.55;20.73;;;7.90;99.90;;;;;;5072327;28;20376;-40
2021/11/25 06:25:09;;;;;;;22.98;20.35;;;7.90;99.90;;;;;;5071049;28;20053;-40
2021/11/25 06:27:37;;;;;;;21.10;18.65;;;7.90;99.90;;;;;;5071878;28;20044;-45
2021/11/25 06:30:06;;;;;;;20.63;18.02;;;7.90;99.90;;;;;;5054063;28;20036;-41
2021/11/25 06:32:32;;;;;;;25.90;19.63;;;7.80;99.90;;;;;;5058261;28;20040;-43
2021/11/25 06:34:59;;;;;;;23.00;18.48;;;7.80;99.90;;;;;;5075788;28;20036;-38
2021/11/25 06:37:25;;;;;;;22.67;20.02;;;7.80;99.90;;;;;;5076326;28;20361;-41
2021/11/25 06:39:52;;;;;;;25.02;19.85;;;7.80;99.90;;;;;;5076017;28;20036;-43
2021/11/25 06:42:18;;;;;;;24.35;20.45;;;7.70;99.90;;;;;;5076062;28;20483;-40
2021/11/25 06:44:45;;;;;;;26.60;20.83;;;7.80;99.90;;;;;;5075894;28;20047;-41
2021/11/25 06:47:11;;;;;;;24.73;20.35;;;7.70;99.90;;;;;;5075647;28;20472;-41
2021/11/25 06:49:38;;;;;;;26.85;21.27;;;7.70;99.90;;;;;;5076232;28;20029;-40
2021/11/25 06:52:05;;;;;;;22.80;18.15;;;7.70;99.90;;;;;;5075416;28;20028;-42
2021/11/25 06:54:31;;;;;;;22.75;18.58;;;7.60;99.90;;;;;;5075900;28;20031;-41
2021/11/25 06:56:58;;;;;;;22.48;18.05;;;7.60;99.90;;;;;;5075694;28;20218;-41
2021/11/25 06:59:25;;;;;;;22.85;17.95;;;7.60;99.90;;;;;;5075415;28;20039;-40
2021/11/25 07:01:51;;;;;;;19.05;16.45;;;7.60;99.90;;;;;;5075563;28;20032;-42
2021/11/25 07:04:18;;;;;;;18.58;15.93;;;7.60;99.90;;;;;;5075580;28;20047;-43
2021/11/25 07:06:45;;;;;;;16.25;13.57;;;7.60;99.90;;;;;;5074451;28;20041;-42
2021/11/25 07:09:12;;;;;;;18.65;13.30;;;7.50;99.90;;;;;;5075814;28;20400;-42
2021/11/25 07:11:38;;;;;;;17.50;13.48;;;7.50;99.90;;;;;;5075465;28;20044;-45
2021/11/25 07:14:05;;;;;;;16.23;12.07;;;7.50;99.90;;;;;;5075407;28;20032;-45
2021/11/25 07:16:31;;;;;;;13.82;11.25;;;7.40;99.90;;;;;;5074036;28;20045;-45
2021/11/25 07:18:58;;;;;;;13.07;11.10;;;7.50;99.90;;;;;;5074863;28;20033;-45
2021/11/25 07:21:24;;;;;;;16.02;11.23;;;7.40;99.90;;;;;;5075592;28;20483;-45
2021/11/25 07:23:51;;;;;;;12.57;10.63;;;7.40;99.90;;;;;;5074992;28;20043;-43
2021/11/25 07:26:17;;;;;;;12.43;9.95;;;7.40;99.90;;;;;;5073914;28;20043;-51
2021/11/25 07:28:44;;;;;;;13.25;9.95;;;7.30;99.90;;;;;;5074260;28;20021;-48
2021/11/25 07:31:10;;;;;;;15.18;10.68;;;7.30;99.90;;;;;;5073205;28;20488;-42
2021/11/25 07:33:37;;;;;;;11.35;9.18;;;7.30;99.90;;;;;;5056723;28;20024;-43
2021/11/25 07:36:04;;;;;;;14.43;9.75;;;7.20;99.90;;;;;;5074247;28;20500;-40
2021/11/25 07:38:31;;;;;;;15.95;11.63;;;7.30;99.90;;;;;;5073424;28;20389;-41
2021/11/25 07:40:59;;;;;;;19.55;12.68;;;7.30;99.90;;;;;;5075188;28;20469;-41
2021/11/25 07:43:27;;;;;;;21.92;15.57;;;7.30;99.90;;;;;;5074695;28;20029;-43
2021/11/25 07:45:56;;;;;;;21.40;14.60;;;7.50;99.90;;;;;;5056045;28;20027;-41
2021/11/25 07:48:23;;;;;;;14.32;10.60;;;7.50;99.90;;;;;;5074848;28;20029;-43
2021/11/25 07:50:49;;;;;;;14.30;9.75;;;7.50;99.90;;;;;;5074472;28;20036;-43
2021/11/25 07:53:16;;;;;;;59.30;30.17;;;7.50;99.90;;;;;;5074929;28;20036;-40
2021/11/25 07:55:42;;;;;;;20.38;14.90;;;7.60;99.90;;;;;;5056571;28;20035;-41
2021/11/25 07:58:08;;;;;;;22.17;13.55;;;7.60;99.90;;;;;;5074253;28;20033;-43
2021/11/25 08:00:35;;;;;;;14.23;11.02;;;7.60;99.90;;;;;;5074327;28;20372;-41
2021/11/25 08:03:02;;;;;;;16.88;10.35;;;7.60;99.90;;;;;;5074545;28;20350;-42
2021/11/25 08:05:28;;;;;;;22.25;12.45;;;7.70;99.90;;;;;;5073985;28;20408;-40
